sensor_id;sensor_type;location;lat;lon;timestamp;temperature;humidity
18998;DHT22;9632;51.018;4.284;2022-11-20T00:00:48;6.20;99.90
18998;DHT22;9632;51.018;4.284;2022-11-20T00:03:13;6.30;99.90
18998;DHT22;9632;51.018;4.284;2022-11-20T00:05:39;6.30;99.90
18998;DHT22;9632;51.018;4.284;2022-11-20T00:08:05;6.30;99.90
18998;DHT22;9632;51.018;4.284;2022-11-20T00:10:30;6.30;99.90
18998;DHT22;9632;51.018;4.284;2022-11-20T00:12:58;6.30;99.90
18998;DHT22;9632;51.018;4.284;2022-11-20T00:15:23;6.30;99.90
18998;DHT22;9632;51.018;4.284;2022-11-20T00:17:49;6.30;99.90
18998;DHT22;9632;51.018;4.284;2022-11-20T00:20:15;6.30;99.90
18998;DHT22;9632;51.018;4.284;2022-11-20T00:22:41;6.40;99.90
18998;DHT22;9632;51.018;4.284;2022-11-20T00:25:06;6.40;99.90
18998;DHT22;9632;51.018;4.284;2022-11-20T00:27:32;6.40;99.90
18998;DHT22;9632;51.018;4.284;2022-11-20T00:29:58;6.40;99.90
18998;DHT22;9632;51.018;4.284;2022-11-20T00:32:23;6.40;99.90
18998;DHT22;9632;51.018;4.284;2022-11-20T00:34:49;6.40;99.90
18998;DHT22;9632;51.018;4.284;2022-11-20T00:37:15;6.40;99.90
18998;DHT22;9632;51.018;4.284;2022-11-20T00:39:40;6.40;99.90
18998;DHT22;9632;51.018;4.284;2022-11-20T00:42:06;6.40;99.90
18998;DHT22;9632;51.018;4.284;2022-11-20T00:44:31;6.40;99.90
18998;DHT22;9632;51.018;4.284;2022-11-20T00:46:57;6.50;99.90
18998;DHT22;9632;51.018;4.284;2022-11-20T00:49:23;6.50;99.90
18998;DHT22;9632;51.018;4.284;2022-11-20T00:51:48;6.50;99.90
18998;DHT22;9632;51.018;4.284;2022-11-20T00:54:14;6.50;99.90
18998;DHT22;9632;51.018;4.284;2022-11-20T00:56:39;6.50;99.90
18998;DHT22;9632;51.018;4.284;2022-11-20T00:59:05;6.50;99.90
18998;DHT22;9632;51.018;4.284;2022-11-20T01:01:31;6.60;99.90
18998;DHT22;9632;51.018;4.284;2022-11-20T01:03:59;6.50;99.90
18998;DHT22;9632;51.018;4.284;2022-11-20T01:06:28;6.50;99.90
18998;DHT22;9632;51.018;4.284;2022-11-20T01:08:56;6.40;99.90
18998;DHT22;9632;51.018;4.284;2022-11-20T01:11:30;6.50;99.90
18998;DHT22;9632;51.018;4.284;2022-11-20T01:13:56;6.40;99.90
18998;DHT22;9632;51.018;4.284;2022-11-20T01:16:31;6.40;99.90
18998;DHT22;9632;51.018;4.284;2022-11-20T01:18:59;6.40;99.90
18998;DHT22;9632;51.018;4.284;2022-11-20T01:21:30;6.40;99.90
18998;DHT22;9632;51.018;4.284;2022-11-20T01:23:57;6.50;99.90
18998;DHT22;9632;51.018;4.284;2022-11-20T01:26:25;6.50;99.90
18998;DHT22;9632;51.018;4.284;2022-11-20T01:28:52;6.50;99.90
18998;DHT22;9632;51.018;4.284;2022-11-20T01:31:21;6.50;99.90
18998;DHT22;9632;51.018;4.284;2022-11-20T01:33:50;6.50;99.90
18998;DHT22;9632;51.018;4.284;2022-11-20T01:36:17;6.50;99.90
18998;DHT22;9632;51.018;4.284;2022-11-20T01:38:44;6.50;99.90
18998;DHT22;9632;51.018;4.284;2022-11-20T01:41:10;6.50;99.90
18998;DHT22;9632;51.018;4.284;2022-11-20T01:43:36;6.50;99.90
18998;DHT22;9632;51.018;4.284;2022-11-20T01:46:17;6.40;99.90
18998;DHT22;9632;51.018;4.284;2022-11-20T01:51:46;6.40;99.90
18998;DHT22;9632;51.018;4.284;2022-11-20T01:54:18;6.40;99.90
18998;DHT22;9632;51.018;4.284;2022-11-20T01:56:46;6.40;99.90
18998;DHT22;9632;51.018;4.284;2022-11-20T01:59:16;6.40;99.90
18998;DHT22;9632;51.018;4.284;2022-11-20T02:01:43;6.40;99.90
18998;DHT22;9632;51.018;4.284;2022-11-20T02:04:09;6.40;99.90
18998;DHT22;9632;51.018;4.284;2022-11-20T02:06:48;6.40;99.90
18998;DHT22;9632;51.018;4.284;2022-11-20T02:09:15;6.40;99.90
18998;DHT22;9632;51.018;4.284;2022-11-20T02:11:40;6.40;99.90
18998;DHT22;9632;51.018;4.284;2022-11-20T02:14:06;6.40;99.90
18998;DHT22;9632;51.018;4.284;2022-11-20T02:16:38;6.40;99.90
18998;DHT22;9632;51.018;4.284;2022-11-20T02:19:09;6.40;99.90
18998;DHT22;9632;51.018;4.284;2022-11-20T02:21:53;6.40;99.90
18998;DHT22;9632;51.018;4.284;2022-11-20T02:24:22;6.40;99.90
18998;DHT22;9632;51.018;4.284;2022-11-20T02:27:07;6.40;99.90
18998;DHT22;9632;51.018;4.284;2022-11-20T02:29:39;6.40;99.90
18998;DHT22;9632;51.018;4.284;2022-11-20T02:32:06;6.40;99.90
18998;DHT22;9632;51.018;4.284;2022-11-20T02:34:42;6.40;99.90
18998;DHT22;9632;51.018;4.284;2022-11-20T02:37:08;6.40;99.90
18998;DHT22;9632;51.018;4.284;2022-11-20T02:39:33;6.40;99.90
18998;DHT22;9632;51.018;4.284;2022-11-20T02:42:01;6.40;99.90
18998;DHT22;9632;51.018;4.284;2022-11-20T02:44:27;6.40;99.90
18998;DHT22;9632;51.018;4.284;2022-11-20T02:46:52;6.50;99.90
18998;DHT22;9632;51.018;4.284;2022-11-20T02:49:18;6.50;99.90
18998;DHT22;9632;51.018;4.284;2022-11-20T02:51:43;6.40;99.90
18998;DHT22;9632;51.018;4.284;2022-11-20T02:54:09;6.40;99.90
18998;DHT22;9632;51.018;4.284;2022-11-20T02:56:38;6.40;99.90
18998;DHT22;9632;51.018;4.284;2022-11-20T02:59:03;6.40;99.90
18998;DHT22;9632;51.018;4.284;2022-11-20T03:01:30;6.40;99.90
18998;DHT22;9632;51.018;4.284;2022-11-20T03:03:55;6.40;99.90
18998;DHT22;9632;51.018;4.284;2022-11-20T03:06:21;6.40;99.90
18998;DHT22;9632;51.018;4.284;2022-11-20T03:08:47;6.40;99.90
18998;DHT22;9632;51.018;4.284;2022-11-20T03:11:13;6.50;99.90
18998;DHT22;9632;51.018;4.284;2022-11-20T03:13:38;6.50;99.90
18998;DHT22;9632;51.018;4.284;2022-11-20T03:16:13;6.50;99.90
18998;DHT22;9632;51.018;4.284;2022-11-20T03:18:40;6.50;99.90
18998;DHT22;9632;51.018;4.284;2022-11-20T03:21:07;6.50;99.90
18998;DHT22;9632;51.018;4.284;2022-11-20T03:23:33;6.50;99.90
18998;DHT22;9632;51.018;4.284;2022-11-20T03:26:20;6.50;99.90
18998;DHT22;9632;51.018;4.284;2022-11-20T03:28:48;6.40;99.90
18998;DHT22;9632;51.018;4.284;2022-11-20T03:31:16;6.40;99.90
18998;DHT22;9632;51.018;4.284;2022-11-20T03:33:42;6.50;99.90
18998;DHT22;9632;51.018;4.284;2022-11-20T03:36:11;6.50;99.90
18998;DHT22;9632;51.018;4.284;2022-11-20T03:38:38;6.50;99.90
18998;DHT22;9632;51.018;4.284;2022-11-20T03:41:06;6.50;99.90
18998;DHT22;9632;51.018;4.284;2022-11-20T03:43:32;6.50;99.90
18998;DHT22;9632;51.018;4.284;2022-11-20T03:45:59;6.50;99.90
18998;DHT22;9632;51.018;4.284;2022-11-20T03:48:24;6.50;99.90
18998;DHT22;9632;51.018;4.284;2022-11-20T03:50:51;6.50;99.90
18998;DHT22;9632;51.018;4.284;2022-11-20T03:53:17;6.50;99.90
18998;DHT22;9632;51.018;4.284;2022-11-20T03:55:42;6.50;99.90
18998;DHT22;9632;51.018;4.284;2022-11-20T03:58:09;6.50;99.90
18998;DHT22;9632;51.018;4.284;2022-11-20T04:00:35;6.50;99.90
18998;DHT22;9632;51.018;4.284;2022-11-20T04:03:01;6.50;99.90
18998;DHT22;9632;51.018;4.284;2022-11-20T04:05:28;6.50;99.90
18998;DHT22;9632;51.018;4.284;2022-11-20T04:07:53;6.50;99.90
18998;DHT22;9632;51.018;4.284;2022-11-20T04:10:19;6.60;99.90
18998;DHT22;9632;51.018;4.284;2022-11-20T04:12:45;6.60;99.90
18998;DHT22;9632;51.018;4.284;2022-11-20T04:15:10;6.60;99.90
18998;DHT22;9632;51.018;4.284;2022-11-20T04:17:36;6.60;99.90
18998;DHT22;9632;51.018;4.284;2022-11-20T04:20:02;6.50;99.90
18998;DHT22;9632;51.018;4.284;2022-11-20T04:22:27;6.60;99.90
18998;DHT22;9632;51.018;4.284;2022-11-20T04:24:53;6.50;99.90
18998;DHT22;9632;51.018;4.284;2022-11-20T04:27:19;6.50;99.90
18998;DHT22;9632;51.018;4.284;2022-11-20T04:29:44;6.50;99.90
18998;DHT22;9632;51.018;4.284;2022-11-20T04:32:10;6.50;99.90
18998;DHT22;9632;51.018;4.284;2022-11-20T04:34:35;6.40;99.90
18998;DHT22;9632;51.018;4.284;2022-11-20T04:37:01;6.40;99.90
18998;DHT22;9632;51.018;4.284;2022-11-20T04:39:27;6.40;99.90
18998;DHT22;9632;51.018;4.284;2022-11-20T04:41:52;6.50;99.90
18998;DHT22;9632;51.018;4.284;2022-11-20T04:44:38;6.50;99.90
18998;DHT22;9632;51.018;4.284;2022-11-20T04:47:03;6.50;99.90
18998;DHT22;9632;51.018;4.284;2022-11-20T04:49:29;6.50;99.90
18998;DHT22;9632;51.018;4.284;2022-11-20T04:51:57;6.50;99.90
18998;DHT22;9632;51.018;4.284;2022-11-20T04:54:22;6.50;99.90
18998;DHT22;9632;51.018;4.284;2022-11-20T04:56:48;6.50;99.90
18998;DHT22;9632;51.018;4.284;2022-11-20T04:59:14;6.50;99.90
18998;DHT22;9632;51.018;4.284;2022-11-20T05:01:39;6.50;99.90
18998;DHT22;9632;51.018;4.284;2022-11-20T05:04:05;6.50;99.90
18998;DHT22;9632;51.018;4.284;2022-11-20T05:06:31;6.50;99.90
18998;DHT22;9632;51.018;4.284;2022-11-20T05:08:57;6.50;99.90
18998;DHT22;9632;51.018;4.284;2022-11-20T05:11:23;6.50;99.90
18998;DHT22;9632;51.018;4.284;2022-11-20T05:13:50;6.50;99.90
18998;DHT22;9632;51.018;4.284;2022-11-20T05:16:21;6.50;99.90
18998;DHT22;9632;51.018;4.284;2022-11-20T05:18:47;6.50;99.90
18998;DHT22;9632;51.018;4.284;2022-11-20T05:21:13;6.50;99.90
18998;DHT22;9632;51.018;4.284;2022-11-20T05:23:39;6.50;99.90
18998;DHT22;9632;51.018;4.284;2022-11-20T05:26:07;6.50;99.90
18998;DHT22;9632;51.018;4.284;2022-11-20T05:28:33;6.50;99.90
18998;DHT22;9632;51.018;4.284;2022-11-20T05:31:11;6.60;99.90
18998;DHT22;9632;51.018;4.284;2022-11-20T05:33:39;6.50;99.90
18998;DHT22;9632;51.018;4.284;2022-11-20T05:36:06;6.50;99.90
18998;DHT22;9632;51.018;4.284;2022-11-20T05:38:31;6.50;99.90
18998;DHT22;9632;51.018;4.284;2022-11-20T05:41:11;6.60;99.90
18998;DHT22;9632;51.018;4.284;2022-11-20T05:43:39;6.60;99.90
18998;DHT22;9632;51.018;4.284;2022-11-20T05:46:06;6.60;99.90
18998;DHT22;9632;51.018;4.284;2022-11-20T05:48:33;6.50;99.90
18998;DHT22;9632;51.018;4.284;2022-11-20T05:51:01;6.40;99.90
18998;DHT22;9632;51.018;4.284;2022-11-20T05:53:28;6.50;99.90
18998;DHT22;9632;51.018;4.284;2022-11-20T05:56:01;6.50;99.90
18998;DHT22;9632;51.018;4.284;2022-11-20T05:58:27;6.50;99.90
18998;DHT22;9632;51.018;4.284;2022-11-20T06:00:53;6.50;99.90
18998;DHT22;9632;51.018;4.284;2022-11-20T06:03:19;6.50;99.90
18998;DHT22;9632;51.018;4.284;2022-11-20T06:05:45;6.50;99.90
18998;DHT22;9632;51.018;4.284;2022-11-20T06:08:10;6.50;99.90
18998;DHT22;9632;51.018;4.284;2022-11-20T06:10:36;6.50;99.90
18998;DHT22;9632;51.018;4.284;2022-11-20T06:13:01;6.50;99.90
18998;DHT22;9632;51.018;4.284;2022-11-20T06:15:27;6.50;99.90
18998;DHT22;9632;51.018;4.284;2022-11-20T06:17:53;6.60;99.90
18998;DHT22;9632;51.018;4.284;2022-11-20T06:20:20;6.60;99.90
18998;DHT22;9632;51.018;4.284;2022-11-20T06:22:46;6.50;99.90
18998;DHT22;9632;51.018;4.284;2022-11-20T06:25:11;6.50;99.90
18998;DHT22;9632;51.018;4.284;2022-11-20T06:27:37;6.50;99.90
18998;DHT22;9632;51.018;4.284;2022-11-20T06:30:03;6.50;99.90
18998;DHT22;9632;51.018;4.284;2022-11-20T06:32:29;6.50;99.90
18998;DHT22;9632;51.018;4.284;2022-11-20T06:34:55;6.50;99.90
18998;DHT22;9632;51.018;4.284;2022-11-20T06:37:20;6.60;99.90
18998;DHT22;9632;51.018;4.284;2022-11-20T06:39:46;6.60;99.90
18998;DHT22;9632;51.018;4.284;2022-11-20T06:42:11;6.50;99.90
18998;DHT22;9632;51.018;4.284;2022-11-20T06:44:37;6.60;99.90
18998;DHT22;9632;51.018;4.284;2022-11-20T06:47:03;6.60;99.90
18998;DHT22;9632;51.018;4.284;2022-11-20T06:49:29;6.70;99.90
18998;DHT22;9632;51.018;4.284;2022-11-20T06:51:55;6.70;99.90
18998;DHT22;9632;51.018;4.284;2022-11-20T06:54:20;6.70;99.90
18998;DHT22;9632;51.018;4.284;2022-11-20T06:56:49;6.70;99.90
18998;DHT22;9632;51.018;4.284;2022-11-20T06:59:14;6.70;99.90
18998;DHT22;9632;51.018;4.284;2022-11-20T07:01:40;6.80;99.90
18998;DHT22;9632;51.018;4.284;2022-11-20T07:04:06;6.80;99.90
18998;DHT22;9632;51.018;4.284;2022-11-20T07:06:31;6.80;99.90
18998;DHT22;9632;51.018;4.284;2022-11-20T07:08:57;6.90;99.90
18998;DHT22;9632;51.018;4.284;2022-11-20T07:11:23;6.90;99.90
18998;DHT22;9632;51.018;4.284;2022-11-20T07:13:49;6.90;99.90
18998;DHT22;9632;51.018;4.284;2022-11-20T07:16:15;6.90;99.90
18998;DHT22;9632;51.018;4.284;2022-11-20T07:18:40;6.90;99.90
18998;DHT22;9632;51.018;4.284;2022-11-20T07:21:10;6.90;99.90
18998;DHT22;9632;51.018;4.284;2022-11-20T07:23:36;6.90;99.90
18998;DHT22;9632;51.018;4.284;2022-11-20T07:26:06;6.90;99.90
18998;DHT22;9632;51.018;4.284;2022-11-20T07:28:32;6.90;99.90
18998;DHT22;9632;51.018;4.284;2022-11-20T07:30:58;6.90;99.90
18998;DHT22;9632;51.018;4.284;2022-11-20T07:33:24;6.90;99.90
18998;DHT22;9632;51.018;4.284;2022-11-20T07:35:50;7.00;99.90
18998;DHT22;9632;51.018;4.284;2022-11-20T07:38:15;7.00;99.90
18998;DHT22;9632;51.018;4.284;2022-11-20T07:40:41;7.00;99.90
18998;DHT22;9632;51.018;4.284;2022-11-20T07:43:06;7.00;99.90
18998;DHT22;9632;51.018;4.284;2022-11-20T07:45:32;7.00;99.90
18998;DHT22;9632;51.018;4.284;2022-11-20T07:47:58;7.00;99.90
18998;DHT22;9632;51.018;4.284;2022-11-20T07:50:24;7.00;99.90
18998;DHT22;9632;51.018;4.284;2022-11-20T07:52:49;7.10;99.90
18998;DHT22;9632;51.018;4.284;2022-11-20T07:55:15;7.10;99.90
18998;DHT22;9632;51.018;4.284;2022-11-20T07:57:41;7.10;99.90
18998;DHT22;9632;51.018;4.284;2022-11-20T08:00:08;7.10;99.90
18998;DHT22;9632;51.018;4.284;2022-11-20T08:02:37;7.20;99.90
18998;DHT22;9632;51.018;4.284;2022-11-20T08:05:04;7.20;99.90
18998;DHT22;9632;51.018;4.284;2022-11-20T08:07:35;7.30;99.90
18998;DHT22;9632;51.018;4.284;2022-11-20T08:10:02;7.20;99.90
18998;DHT22;9632;51.018;4.284;2022-11-20T08:12:27;7.20;99.90
18998;DHT22;9632;51.018;4.284;2022-11-20T08:15:12;7.20;99.90
18998;DHT22;9632;51.018;4.284;2022-11-20T08:17:37;7.20;99.90
18998;DHT22;9632;51.018;4.284;2022-11-20T08:20:03;7.30;99.90
18998;DHT22;9632;51.018;4.284;2022-11-20T08:22:29;7.40;99.90
18998;DHT22;9632;51.018;4.284;2022-11-20T08:24:54;7.40;99.90
18998;DHT22;9632;51.018;4.284;2022-11-20T08:27:20;7.40;99.90
18998;DHT22;9632;51.018;4.284;2022-11-20T08:29:46;7.40;99.90
18998;DHT22;9632;51.018;4.284;2022-11-20T08:32:11;7.50;99.90
18998;DHT22;9632;51.018;4.284;2022-11-20T08:34:37;7.50;99.90
18998;DHT22;9632;51.018;4.284;2022-11-20T08:37:03;7.50;99.90
18998;DHT22;9632;51.018;4.284;2022-11-20T08:39:28;7.50;99.90
18998;DHT22;9632;51.018;4.284;2022-11-20T08:41:54;7.50;99.90
18998;DHT22;9632;51.018;4.284;2022-11-20T08:44:20;7.50;99.90
18998;DHT22;9632;51.018;4.284;2022-11-20T08:46:45;7.50;99.90
18998;DHT22;9632;51.018;4.284;2022-11-20T08:49:13;7.50;99.90
18998;DHT22;9632;51.018;4.284;2022-11-20T08:51:39;7.50;99.90
18998;DHT22;9632;51.018;4.284;2022-11-20T08:54:06;7.50;99.90
18998;DHT22;9632;51.018;4.284;2022-11-20T08:56:32;7.50;99.90
18998;DHT22;9632;51.018;4.284;2022-11-20T08:58:58;7.50;99.90
18998;DHT22;9632;51.018;4.284;2022-11-20T09:01:25;7.60;99.90
18998;DHT22;9632;51.018;4.284;2022-11-20T09:03:51;7.60;99.90
18998;DHT22;9632;51.018;4.284;2022-11-20T09:06:17;7.60;99.90
18998;DHT22;9632;51.018;4.284;2022-11-20T09:08:43;7.60;99.90
18998;DHT22;9632;51.018;4.284;2022-11-20T09:11:09;7.50;99.90
18998;DHT22;9632;51.018;4.284;2022-11-20T09:13:35;7.50;99.90
18998;DHT22;9632;51.018;4.284;2022-11-20T09:16:04;7.60;99.90
18998;DHT22;9632;51.018;4.284;2022-11-20T09:18:31;7.70;99.90
18998;DHT22;9632;51.018;4.284;2022-11-20T09:21:02;7.70;99.90
18998;DHT22;9632;51.018;4.284;2022-11-20T09:23:32;7.70;99.90
18998;DHT22;9632;51.018;4.284;2022-11-20T09:26:09;7.80;99.90
18998;DHT22;9632;51.018;4.284;2022-11-20T09:28:35;7.80;99.90
18998;DHT22;9632;51.018;4.284;2022-11-20T09:31:04;7.90;99.90
18998;DHT22;9632;51.018;4.284;2022-11-20T09:33:29;7.90;99.90
18998;DHT22;9632;51.018;4.284;2022-11-20T09:35:55;8.00;99.90
18998;DHT22;9632;51.018;4.284;2022-11-20T09:38:21;8.10;99.90
18998;DHT22;9632;51.018;4.284;2022-11-20T09:41:06;8.10;99.90
18998;DHT22;9632;51.018;4.284;2022-11-20T09:54:46;8.40;99.90
18998;DHT22;9632;51.018;4.284;2022-11-20T09:57:17;8.50;99.90
18998;DHT22;9632;51.018;4.284;2022-11-20T09:59:48;8.50;99.90
18998;DHT22;9632;51.018;4.284;2022-11-20T10:07:48;8.70;99.90
18998;DHT22;9632;51.018;4.284;2022-11-20T10:10:44;8.80;99.90
18998;DHT22;9632;51.018;4.284;2022-11-20T10:15:57;8.90;99.90
18998;DHT22;9632;51.018;4.284;2022-11-20T10:26:43;8.90;99.90
18998;DHT22;9632;51.018;4.284;2022-11-20T10:29:13;8.90;99.90
18998;DHT22;9632;51.018;4.284;2022-11-20T10:31:41;8.90;99.90
18998;DHT22;9632;51.018;4.284;2022-11-20T10:34:23;9.00;99.90
18998;DHT22;9632;51.018;4.284;2022-11-20T10:37:13;9.00;99.90
18998;DHT22;9632;51.018;4.284;2022-11-20T10:40:00;9.10;99.90
18998;DHT22;9632;51.018;4.284;2022-11-20T10:42:45;9.20;99.90
18998;DHT22;9632;51.018;4.284;2022-11-20T10:47:49;9.40;99.90
18998;DHT22;9632;51.018;4.284;2022-11-20T10:50:19;9.50;99.90
18998;DHT22;9632;51.018;4.284;2022-11-20T10:55:44;9.70;99.90
18998;DHT22;9632;51.018;4.284;2022-11-20T10:58:14;9.80;99.90
18998;DHT22;9632;51.018;4.284;2022-11-20T11:00:40;9.80;99.90
18998;DHT22;9632;51.018;4.284;2022-11-20T11:03:29;9.90;99.90
18998;DHT22;9632;51.018;4.284;2022-11-20T11:08:26;9.90;99.90
18998;DHT22;9632;51.018;4.284;2022-11-20T11:10:56;10.00;99.90
18998;DHT22;9632;51.018;4.284;2022-11-20T11:13:28;10.00;99.90
18998;DHT22;9632;51.018;4.284;2022-11-20T11:15:54;10.10;99.90
18998;DHT22;9632;51.018;4.284;2022-11-20T11:18:46;10.20;99.90
18998;DHT22;9632;51.018;4.284;2022-11-20T11:21:12;10.20;99.90
18998;DHT22;9632;51.018;4.284;2022-11-20T11:23:43;10.20;99.90
18998;DHT22;9632;51.018;4.284;2022-11-20T11:26:22;10.20;99.90
18998;DHT22;9632;51.018;4.284;2022-11-20T11:29:03;10.30;99.90
18998;DHT22;9632;51.018;4.284;2022-11-20T11:31:30;10.30;99.90
18998;DHT22;9632;51.018;4.284;2022-11-20T11:36:37;10.40;99.90
18998;DHT22;9632;51.018;4.284;2022-11-20T11:39:05;10.30;99.90
18998;DHT22;9632;51.018;4.284;2022-11-20T11:41:33;10.30;99.90
18998;DHT22;9632;51.018;4.284;2022-11-20T11:44:20;10.40;99.90
18998;DHT22;9632;51.018;4.284;2022-11-20T11:47:19;10.40;99.90
18998;DHT22;9632;51.018;4.284;2022-11-20T11:49:45;10.50;99.90
18998;DHT22;9632;51.018;4.284;2022-11-20T11:52:20;10.40;99.90
18998;DHT22;9632;51.018;4.284;2022-11-20T11:55:01;10.50;99.90
18998;DHT22;9632;51.018;4.284;2022-11-20T12:00:18;10.50;99.90
18998;DHT22;9632;51.018;4.284;2022-11-20T12:05:18;10.50;99.90
18998;DHT22;9632;51.018;4.284;2022-11-20T12:12:50;10.60;99.90
18998;DHT22;9632;51.018;4.284;2022-11-20T12:15:25;10.60;99.90
18998;DHT22;9632;51.018;4.284;2022-11-20T12:17:51;10.40;99.90
18998;DHT22;9632;51.018;4.284;2022-11-20T12:20:17;10.50;99.90
18998;DHT22;9632;51.018;4.284;2022-11-20T12:22:54;10.50;99.90
18998;DHT22;9632;51.018;4.284;2022-11-20T12:25:31;10.40;99.90
18998;DHT22;9632;51.018;4.284;2022-11-20T12:30:32;10.40;99.90
18998;DHT22;9632;51.018;4.284;2022-11-20T12:50:05;10.20;99.90
18998;DHT22;9632;51.018;4.284;2022-11-20T12:52:53;10.20;99.90
18998;DHT22;9632;51.018;4.284;2022-11-20T13:00:31;10.20;99.90
18998;DHT22;9632;51.018;4.284;2022-11-20T13:04:00;10.20;99.90
18998;DHT22;9632;51.018;4.284;2022-11-20T13:06:14;10.20;99.90
18998;DHT22;9632;51.018;4.284;2022-11-20T13:08:55;10.20;99.90
18998;DHT22;9632;51.018;4.284;2022-11-20T13:17:30;10.10;99.90
18998;DHT22;9632;51.018;4.284;2022-11-20T13:19:56;10.10;99.90
18998;DHT22;9632;51.018;4.284;2022-11-20T13:22:47;10.10;99.90
18998;DHT22;9632;51.018;4.284;2022-11-20T13:25:42;10.10;99.90
18998;DHT22;9632;51.018;4.284;2022-11-20T13:30:37;10.20;99.90
18998;DHT22;9632;51.018;4.284;2022-11-20T13:33:33;10.20;99.90
18998;DHT22;9632;51.018;4.284;2022-11-20T13:36:19;10.10;99.90
18998;DHT22;9632;51.018;4.284;2022-11-20T13:38:53;10.10;99.90
18998;DHT22;9632;51.018;4.284;2022-11-20T13:41:32;10.10;99.90
18998;DHT22;9632;51.018;4.284;2022-11-20T13:46:51;10.00;99.90
18998;DHT22;9632;51.018;4.284;2022-11-20T13:49:31;10.00;99.90
18998;DHT22;9632;51.018;4.284;2022-11-20T13:54:44;9.90;99.90
18998;DHT22;9632;51.018;4.284;2022-11-20T13:57:30;9.90;99.90
18998;DHT22;9632;51.018;4.284;2022-11-20T14:00:16;10.00;99.90
18998;DHT22;9632;51.018;4.284;2022-11-20T14:02:43;10.00;99.90
18998;DHT22;9632;51.018;4.284;2022-11-20T14:05:22;10.00;99.90
18998;DHT22;9632;51.018;4.284;2022-11-20T14:07:49;10.10;99.90
18998;DHT22;9632;51.018;4.284;2022-11-20T14:10:25;10.10;99.90
18998;DHT22;9632;51.018;4.284;2022-11-20T14:12:51;10.10;99.90
18998;DHT22;9632;51.018;4.284;2022-11-20T14:15:31;10.10;99.90
18998;DHT22;9632;51.018;4.284;2022-11-20T14:17:58;10.00;99.90
18998;DHT22;9632;51.018;4.284;2022-11-20T14:20:27;10.00;99.90
18998;DHT22;9632;51.018;4.284;2022-11-20T14:22:54;10.00;99.90
18998;DHT22;9632;51.018;4.284;2022-11-20T14:25:23;10.10;99.90
18998;DHT22;9632;51.018;4.284;2022-11-20T14:27:54;10.00;99.90
18998;DHT22;9632;51.018;4.284;2022-11-20T14:30:23;10.10;99.90
18998;DHT22;9632;51.018;4.284;2022-11-20T14:32:49;10.10;99.90
18998;DHT22;9632;51.018;4.284;2022-11-20T14:35:46;10.00;99.90
18998;DHT22;9632;51.018;4.284;2022-11-20T14:38:15;10.00;99.90
18998;DHT22;9632;51.018;4.284;2022-11-20T14:40:41;10.00;99.90
18998;DHT22;9632;51.018;4.284;2022-11-20T14:43:24;10.00;99.90
18998;DHT22;9632;51.018;4.284;2022-11-20T14:48:26;10.00;99.90
18998;DHT22;9632;51.018;4.284;2022-11-20T14:50:54;10.00;99.90
18998;DHT22;9632;51.018;4.284;2022-11-20T14:53:23;10.00;99.90
18998;DHT22;9632;51.018;4.284;2022-11-20T14:55:58;10.10;99.90
18998;DHT22;9632;51.018;4.284;2022-11-20T14:58:27;10.10;99.90
18998;DHT22;9632;51.018;4.284;2022-11-20T15:00:56;10.10;99.90
18998;DHT22;9632;51.018;4.284;2022-11-20T15:03:21;10.10;99.90
18998;DHT22;9632;51.018;4.284;2022-11-20T15:05:49;10.00;99.90
18998;DHT22;9632;51.018;4.284;2022-11-20T15:08:15;10.10;99.90
18998;DHT22;9632;51.018;4.284;2022-11-20T15:10:49;10.10;99.90
18998;DHT22;9632;51.018;4.284;2022-11-20T15:13:34;10.10;99.90
18998;DHT22;9632;51.018;4.284;2022-11-20T15:16:03;10.20;99.90
18998;DHT22;9632;51.018;4.284;2022-11-20T15:18:39;10.20;99.90
18998;DHT22;9632;51.018;4.284;2022-11-20T15:21:15;10.20;99.90
18998;DHT22;9632;51.018;4.284;2022-11-20T15:23:42;10.20;99.90
18998;DHT22;9632;51.018;4.284;2022-11-20T15:26:09;10.30;99.90
18998;DHT22;9632;51.018;4.284;2022-11-20T15:28:43;10.30;99.90
18998;DHT22;9632;51.018;4.284;2022-11-20T15:31:12;10.30;99.90
18998;DHT22;9632;51.018;4.284;2022-11-20T15:33:38;10.30;99.90
18998;DHT22;9632;51.018;4.284;2022-11-20T15:36:04;10.40;99.90
18998;DHT22;9632;51.018;4.284;2022-11-20T15:38:29;10.40;99.90
18998;DHT22;9632;51.018;4.284;2022-11-20T15:40:55;10.40;99.90
18998;DHT22;9632;51.018;4.284;2022-11-20T15:43:21;10.40;99.90
18998;DHT22;9632;51.018;4.284;2022-11-20T15:46:05;10.50;99.90
18998;DHT22;9632;51.018;4.284;2022-11-20T15:48:38;10.50;99.90
18998;DHT22;9632;51.018;4.284;2022-11-20T15:53:36;10.50;99.90
18998;DHT22;9632;51.018;4.284;2022-11-20T15:56:02;10.40;99.90
18998;DHT22;9632;51.018;4.284;2022-11-20T15:58:28;10.40;99.90
18998;DHT22;9632;51.018;4.284;2022-11-20T16:00:55;10.50;99.90
18998;DHT22;9632;51.018;4.284;2022-11-20T16:03:20;10.50;99.90
18998;DHT22;9632;51.018;4.284;2022-11-20T16:05:46;10.40;99.90
18998;DHT22;9632;51.018;4.284;2022-11-20T16:08:12;10.40;99.90
18998;DHT22;9632;51.018;4.284;2022-11-20T16:10:38;10.40;99.90
18998;DHT22;9632;51.018;4.284;2022-11-20T16:13:09;10.40;99.90
18998;DHT22;9632;51.018;4.284;2022-11-20T16:15:57;10.40;99.90
18998;DHT22;9632;51.018;4.284;2022-11-20T16:18:23;10.40;99.90
18998;DHT22;9632;51.018;4.284;2022-11-20T16:20:51;10.40;99.90
18998;DHT22;9632;51.018;4.284;2022-11-20T16:23:17;10.30;99.90
18998;DHT22;9632;51.018;4.284;2022-11-20T16:25:43;10.30;99.90
18998;DHT22;9632;51.018;4.284;2022-11-20T16:28:10;10.30;99.90
18998;DHT22;9632;51.018;4.284;2022-11-20T16:30:37;10.30;99.90
18998;DHT22;9632;51.018;4.284;2022-11-20T16:33:03;10.30;99.90
18998;DHT22;9632;51.018;4.284;2022-11-20T16:35:30;10.30;99.90
18998;DHT22;9632;51.018;4.284;2022-11-20T16:37:57;10.30;99.90
18998;DHT22;9632;51.018;4.284;2022-11-20T16:40:24;10.20;99.90
18998;DHT22;9632;51.018;4.284;2022-11-20T16:42:50;10.30;99.90
18998;DHT22;9632;51.018;4.284;2022-11-20T16:45:16;10.30;99.90
18998;DHT22;9632;51.018;4.284;2022-11-20T16:47:42;10.30;99.90
18998;DHT22;9632;51.018;4.284;2022-11-20T16:50:08;10.30;99.90
18998;DHT22;9632;51.018;4.284;2022-11-20T16:52:33;10.20;99.90
18998;DHT22;9632;51.018;4.284;2022-11-20T16:54:59;10.30;99.90
18998;DHT22;9632;51.018;4.284;2022-11-20T16:57:28;10.20;99.90
18998;DHT22;9632;51.018;4.284;2022-11-20T16:59:54;10.20;99.90
18998;DHT22;9632;51.018;4.284;2022-11-20T17:02:20;10.20;99.90
18998;DHT22;9632;51.018;4.284;2022-11-20T17:04:46;10.20;99.90
18998;DHT22;9632;51.018;4.284;2022-11-20T17:07:11;10.10;99.90
18998;DHT22;9632;51.018;4.284;2022-11-20T17:09:37;10.00;99.90
18998;DHT22;9632;51.018;4.284;2022-11-20T17:12:04;10.00;99.90
18998;DHT22;9632;51.018;4.284;2022-11-20T17:14:30;9.90;99.90
18998;DHT22;9632;51.018;4.284;2022-11-20T17:16:55;10.00;99.90
18998;DHT22;9632;51.018;4.284;2022-11-20T17:19:21;9.90;99.90
18998;DHT22;9632;51.018;4.284;2022-11-20T17:21:46;9.80;99.90
18998;DHT22;9632;51.018;4.284;2022-11-20T17:24:12;9.80;99.90
18998;DHT22;9632;51.018;4.284;2022-11-20T17:26:41;9.90;99.90
18998;DHT22;9632;51.018;4.284;2022-11-20T17:29:13;9.90;99.90
18998;DHT22;9632;51.018;4.284;2022-11-20T17:31:40;9.80;99.90
18998;DHT22;9632;51.018;4.284;2022-11-20T17:34:08;9.80;99.90
18998;DHT22;9632;51.018;4.284;2022-11-20T17:36:35;9.80;99.90
18998;DHT22;9632;51.018;4.284;2022-11-20T17:39:01;9.80;99.90
18998;DHT22;9632;51.018;4.284;2022-11-20T17:41:28;9.80;99.90
18998;DHT22;9632;51.018;4.284;2022-11-20T17:43:55;9.80;99.90